CST,Max TemperatureF,Mean TemperatureF,Min TemperatureF,Max Dew PointF,MeanDew PointF,Min DewpointF,Max Humidity, Mean Humidity, Min Humidity, Max Sea Level PressureIn, Mean Sea Level PressureIn, Min Sea Level PressureIn, Max VisibilityMiles, Mean VisibilityMiles, Min VisibilityMiles, Max Wind SpeedMPH, Mean Wind SpeedMPH, Max Gust SpeedMPH,PrecipitationIn, CloudCover, Events, WindDirDegrees
2012-12-1,46,39,32,37,34,30,100,85,66,29.94,29.77,29.69,10,4,1,22,13,28,0.00,2,,191
2012-12-2,,,,,,,,,,,,,,,,,,,,,,
2012-12-3,48,42,35,45,35,25,93,74,61,29.92,29.70,29.50,10,9,3,29,19,41,0.00,1,Rain,255
2012-12-4,33,24,14,25,13,10,86,72,51,30.36,30.18,29.93,10,10,10,17,12,23,0.00,0,,308
2012-12-5,41,26,12,28,18,10,92,66,51,30.35,30.03,29.72,10,10,10,24,13,33,0.00,0,,128
2012-12-6,42,32,21,32,25,18,93,75,57,29.99,29.86,29.70,10,10,10,24,12,33,0.00,2,Rain,277
2012-12-7,28,24,19,27,22,19,100,93,86,30.04,30.01,29.98,10,6,1,8,4,,0.01,4,Snow,348
2012-12-8,28,26,23,27,23,21,100,95,86,30.02,29.97,29.93,7,4,1,15,6,,0.02,8,Snow,112
2012-12-9,28,17,6,27,19,1,100,90,79,30.03,29.94,29.88,10,3,0,24,17,32,0.08,8,Snow,18
2012-12-10,8,-2,-13,1,-6,-17,92,79,66,30.02,29.89,29.75,10,10,4,16,9,9,0.00,3,Snow,250
2012-12-11,12,4,-5,9,2,-9,92,87,73,29.92,29.82,29.74,10,9,4,15,7,,0.00,4,Snow,266
2012-12-12,30,15,0,25,16,-2,100,86,69,29.92,29.81,29.75,10,9,4,14,8,,0.00,2,,136
2012-12-13,30,21,12,25,19,10,100,89,74,30.10,30.00,29.86,10,6,0,14,7,,0.00,3,Fog,12
2012-12-14,28,20,12,25,17,10,100,91,80,30.09,29.92,29.72,10,5,0,15,8,,0.00,1,Fog,99
2012-12-15,33,28,23,34,31,23,100,94,86,29.71,29.59,29.51,10,3,1,16,10,20,0.47,8,Snow,22
2012-12-16,23,18,12,21,16,10,100,94,86,29.80,29.74,29.62,10,7,1,18,11,,0.00,8,Snow,324
2012-12-17,21,19,17,19,17,16,100,95,93,29.78,29.71,29.64,10,3,0,5,1,,0.00,8,Fog-Snow,108
2012-12-18,26,24,21,27,23,19,100,97,93,29.76,29.65,29.60,7,3,1,7,4,,0.00,8,Snow,123
2012-12-19,26,18,10,27,16,9,100,92,80,30.02,29.90,29.76,10,8,0,13,5,,0.00,2,Fog,252
2012-12-20,21,11,1,19,11,-2,100,88,79,30.13,30.02,29.96,10,9,2,21,11,25,0.00,4,Snow,321
2012-12-21,12,4,-4,5,-1,-8,92,85,73,30.27,30.18,30.09,10,10,7,12,6,,0.00,0,,269
2012-12-22,23,13,3,16,7,0,92,84,73,30.09,30.01,29.95,10,10,7,14,5,18,0.00,0,Snow,359
2012-12-23,15,10,6,10,7,3,92,85,68,30.12,30.07,30.01,10,10,10,15,9,,0.00,3,Snow,36
2012-12-24,12,2,-7,9,-1,-11,92,82,67,30.29,30.14,30.00,10,9,2,14,9,,0.00,3,Snow,329
2012-12-25,3,-4,-11,-4,-10,-17,92,82,72,30.46,30.41,30.29,10,10,7,9,7,,0.00,0,,300
2012-12-26,10,5,0,1,-1,-6,92,83,67,30.37,30.28,30.21,10,8,2,7,2,,0.00,6,Snow,51
2012-12-27,15,8,1,12,8,0,93,86,79,30.21,30.16,30.11,10,6,1,9,6,,0.00,8,Snow,76
2012-12-28,19,12,6,16,10,3,100,91,79,30.11,30.05,30.01,10,5,0,7,4,,0.01,7,Fog-Snow,357
2012-12-29,10,2,-5,9,3,-9,92,89,84,30.10,30.05,30.01,10,6,0,9,2,,0.00,4,Snow,254
2012-12-30,19,8,-4,16,4,-8,93,86,74,30.10,29.98,29.84,10,8,2,23,4,30,0.00,1,Snow,156
2012-12-31,14,2,-9,10,-3,-13,92,78,66,30.22,30.16,30.00,10,10,4,18,10,25,0.00,2,Snow,304